sensor_id;sensor_type;location;lat;lon;timestamp;pressure;altitude;pressure_sealevel;temperature;humidity
30682;BME280;17439;48.092;11.842;2023-08-17T00:02:02;95534.16;;;22.54;58.21
30682;BME280;17439;48.092;11.842;2023-08-17T00:04:28;95529.41;;;22.51;58.34
30682;BME280;17439;48.092;11.842;2023-08-17T00:06:55;95529.78;;;22.49;58.41
30682;BME280;17439;48.092;11.842;2023-08-17T00:09:22;95528.59;;;22.46;58.37
30682;BME280;17439;48.092;11.842;2023-08-17T00:11:48;95519.91;;;22.44;58.70
30682;BME280;17439;48.092;11.842;2023-08-17T00:14:15;95518.31;;;22.43;58.58
30682;BME280;17439;48.092;11.842;2023-08-17T00:16:42;95519.50;;;22.42;58.77
30682;BME280;17439;48.092;11.842;2023-08-17T00:19:08;95512.41;;;22.41;58.82
30682;BME280;17439;48.092;11.842;2023-08-17T00:21:35;95512.41;;;22.41;58.37
30682;BME280;17439;48.092;11.842;2023-08-17T00:24:01;95509.59;;;22.38;58.58
30682;BME280;17439;48.092;11.842;2023-08-17T00:26:28;95506.44;;;22.36;58.74
30682;BME280;17439;48.092;11.842;2023-08-17T00:28:55;95507.22;;;22.33;59.04
30682;BME280;17439;48.092;11.842;2023-08-17T00:31:22;95502.47;;;22.30;58.98
30682;BME280;17439;48.092;11.842;2023-08-17T00:33:48;95505.19;;;22.26;59.27
30682;BME280;17439;48.092;11.842;2023-08-17T00:36:15;95508.72;;;22.23;59.59
30682;BME280;17439;48.092;11.842;2023-08-17T00:38:42;95511.06;;;22.21;59.11
30682;BME280;17439;48.092;11.842;2023-08-17T00:41:09;95509.88;;;22.18;59.19
30682;BME280;17439;48.092;11.842;2023-08-17T00:43:36;95517.34;;;22.18;59.33
30682;BME280;17439;48.092;11.842;2023-08-17T00:46:03;95519.69;;;22.16;59.45
30682;BME280;17439;48.092;11.842;2023-08-17T00:48:30;95520.47;;;22.13;59.13
30682;BME280;17439;48.092;11.842;2023-08-17T00:50:57;95518.09;;;22.11;59.13
30682;BME280;17439;48.092;11.842;2023-08-17T00:53:25;95519.97;;;22.00;60.06
30682;BME280;17439;48.092;11.842;2023-08-17T00:55:53;95519.66;;;22.05;59.31
30682;BME280;17439;48.092;11.842;2023-08-17T00:58:21;95527.13;;;22.04;59.13
30682;BME280;17439;48.092;11.842;2023-08-17T01:00:47;95518.44;;;22.02;59.46
30682;BME280;17439;48.092;11.842;2023-08-17T01:03:15;95516.84;;;22.01;59.66
30682;BME280;17439;48.092;11.842;2023-08-17T01:05:43;95510.91;;;21.99;59.62
30682;BME280;17439;48.092;11.842;2023-08-17T01:08:10;95512.47;;;21.97;59.71
30682;BME280;17439;48.092;11.842;2023-08-17T01:13:15;95516.38;;;21.92;60.56
30682;BME280;17439;48.092;11.842;2023-08-17T01:15:50;95517.16;;;21.89;60.72
30682;BME280;17439;48.092;11.842;2023-08-17T01:18:33;95521.06;;;21.84;60.98
30682;BME280;17439;48.092;11.842;2023-08-17T01:21:02;95521.03;;;21.81;59.89
30682;BME280;17439;48.092;11.842;2023-08-17T01:23:30;95511.97;;;21.80;60.08
30682;BME280;17439;48.092;11.842;2023-08-17T01:25:57;95509.97;;;21.77;59.65
30682;BME280;17439;48.092;11.842;2023-08-17T01:28:24;95514.25;;;21.74;60.00
30682;BME280;17439;48.092;11.842;2023-08-17T01:31:00;95515.47;;;21.73;60.78
30682;BME280;17439;48.092;11.842;2023-08-17T01:33:33;95517.00;;;21.71;60.88
30682;BME280;17439;48.092;11.842;2023-08-17T01:36:18;95513.84;;;21.69;61.43
30682;BME280;17439;48.092;11.842;2023-08-17T01:38:47;95506.72;;;21.68;60.13
30682;BME280;17439;48.092;11.842;2023-08-17T01:41:16;95512.63;;;21.66;59.82
30682;BME280;17439;48.092;11.842;2023-08-17T01:43:44;95511.44;;;21.64;60.27
30682;BME280;17439;48.092;11.842;2023-08-17T01:46:16;95515.75;;;21.61;61.49
30682;BME280;17439;48.092;11.842;2023-08-17T01:48:44;95504.31;;;21.59;60.26
30682;BME280;17439;48.092;11.842;2023-08-17T01:51:18;95513.75;;;21.58;60.24
30682;BME280;17439;48.092;11.842;2023-08-17T01:53:46;95519.63;;;21.56;60.51
30682;BME280;17439;48.092;11.842;2023-08-17T01:56:12;95518.44;;;21.54;60.25
30682;BME280;17439;48.092;11.842;2023-08-17T01:58:39;95514.88;;;21.53;60.53
30682;BME280;17439;48.092;11.842;2023-08-17T02:01:06;95515.25;;;21.52;60.23
30682;BME280;17439;48.092;11.842;2023-08-17T02:03:33;95505.41;;;21.51;60.19
30682;BME280;17439;48.092;11.842;2023-08-17T02:06:00;95504.22;;;21.52;60.16
30682;BME280;17439;48.092;11.842;2023-08-17T02:08:27;95496.34;;;21.50;60.13
30682;BME280;17439;48.092;11.842;2023-08-17T02:10:53;95488.44;;;21.49;60.13
30682;BME280;17439;48.092;11.842;2023-08-17T02:13:21;95488.38;;;21.45;60.36
30682;BME280;17439;48.092;11.842;2023-08-17T02:15:48;95494.28;;;21.44;60.46
30682;BME280;17439;48.092;11.842;2023-08-17T02:18:14;95494.28;;;21.44;60.19
30682;BME280;17439;48.092;11.842;2023-08-17T02:20:41;95495.81;;;21.41;60.37
30682;BME280;17439;48.092;11.842;2023-08-17T02:23:10;95488.75;;;21.40;60.24
30682;BME280;17439;48.092;11.842;2023-08-17T02:25:38;95495.41;;;21.39;60.56
30682;BME280;17439;48.092;11.842;2023-08-17T02:28:05;95484.38;;;21.35;60.75
30682;BME280;17439;48.092;11.842;2023-08-17T02:30:32;95483.97;;;21.33;60.42
30682;BME280;17439;48.092;11.842;2023-08-17T02:32:59;95478.44;;;21.33;60.66
30682;BME280;17439;48.092;11.842;2023-08-17T02:35:26;95481.59;;;21.32;60.60
30682;BME280;17439;48.092;11.842;2023-08-17T02:37:52;95481.97;;;21.30;60.40
30682;BME280;17439;48.092;11.842;2023-08-17T02:40:19;95481.97;;;21.30;61.13
30682;BME280;17439;48.092;11.842;2023-08-17T02:42:46;95480.38;;;21.29;60.94
30682;BME280;17439;48.092;11.842;2023-08-17T02:45:14;95480.25;;;21.18;61.77
30682;BME280;17439;48.092;11.842;2023-08-17T02:47:41;95477.59;;;21.26;61.27
30682;BME280;17439;48.092;11.842;2023-08-17T02:50:08;95483.50;;;21.28;60.92
30682;BME280;17439;48.092;11.842;2023-08-17T02:52:35;95472.06;;;21.26;61.09
30682;BME280;17439;48.092;11.842;2023-08-17T02:55:02;95473.22;;;21.25;60.72
30682;BME280;17439;48.092;11.842;2023-08-17T02:57:29;95468.88;;;21.24;61.20
30682;BME280;17439;48.092;11.842;2023-08-17T02:59:57;95469.28;;;21.22;61.58
30682;BME280;17439;48.092;11.842;2023-08-17T03:02:24;95462.59;;;21.23;61.65
30682;BME280;17439;48.092;11.842;2023-08-17T03:04:51;95464.56;;;21.23;61.98
30682;BME280;17439;48.092;11.842;2023-08-17T03:07:18;95465.34;;;21.23;62.92
30682;BME280;17439;48.092;11.842;2023-08-17T03:09:45;95468.88;;;21.24;63.07
30682;BME280;17439;48.092;11.842;2023-08-17T03:12:11;95469.31;;;21.26;63.37
30682;BME280;17439;48.092;11.842;2023-08-17T03:14:38;95455.16;;;21.27;63.31
30682;BME280;17439;48.092;11.842;2023-08-17T03:17:05;95461.84;;;21.30;64.04
30682;BME280;17439;48.092;11.842;2023-08-17T03:19:32;95463.44;;;21.31;64.05
30682;BME280;17439;48.092;11.842;2023-08-17T03:22:00;95459.16;;;21.33;63.65
30682;BME280;17439;48.092;11.842;2023-08-17T03:24:26;95470.19;;;21.37;63.57
30682;BME280;17439;48.092;11.842;2023-08-17T03:26:54;95470.19;;;21.37;63.04
30682;BME280;17439;48.092;11.842;2023-08-17T03:29:23;95477.31;;;21.38;63.27
30682;BME280;17439;48.092;11.842;2023-08-17T03:31:50;95481.63;;;21.39;63.38
30682;BME280;17439;48.092;11.842;2023-08-17T03:34:18;95473.75;;;21.37;63.65
30682;BME280;17439;48.092;11.842;2023-08-17T03:36:45;95483.59;;;21.38;63.17
30682;BME280;17439;48.092;11.842;2023-08-17T03:39:11;95483.59;;;21.38;63.20
30682;BME280;17439;48.092;11.842;2023-08-17T03:41:38;95483.22;;;21.40;63.22
30682;BME280;17439;48.092;11.842;2023-08-17T03:44:05;95481.25;;;21.41;62.99
30682;BME280;17439;48.092;11.842;2023-08-17T03:46:32;95481.25;;;21.41;62.69
30682;BME280;17439;48.092;11.842;2023-08-17T03:48:58;95495.03;;;21.41;62.53
30682;BME280;17439;48.092;11.842;2023-08-17T03:51:25;95489.13;;;21.38;63.11
30682;BME280;17439;48.092;11.842;2023-08-17T03:53:52;95495.78;;;21.37;62.87
30682;BME280;17439;48.092;11.842;2023-08-17T03:56:19;95497.38;;;21.35;63.18
30682;BME280;17439;48.092;11.842;2023-08-17T03:58:46;95507.59;;;21.34;63.19
30682;BME280;17439;48.092;11.842;2023-08-17T04:01:12;95500.50;;;21.33;62.94
30682;BME280;17439;48.092;11.842;2023-08-17T04:03:40;95512.69;;;21.32;62.94
30682;BME280;17439;48.092;11.842;2023-08-17T04:06:08;95501.66;;;21.32;62.81
30682;BME280;17439;48.092;11.842;2023-08-17T04:08:34;95504.00;;;21.30;62.74
30682;BME280;17439;48.092;11.842;2023-08-17T04:11:01;95509.09;;;21.28;62.78
30682;BME280;17439;48.092;11.842;2023-08-17T04:13:28;95508.31;;;21.28;62.66
30682;BME280;17439;48.092;11.842;2023-08-17T04:15:55;95500.41;;;21.26;62.93
30682;BME280;17439;48.092;11.842;2023-08-17T04:18:22;95505.94;;;21.26;62.97
30682;BME280;17439;48.092;11.842;2023-08-17T04:20:50;95512.59;;;21.25;62.93
30682;BME280;17439;48.092;11.842;2023-08-17T04:23:20;95504.72;;;21.24;63.19
30682;BME280;17439;48.092;11.842;2023-08-17T04:25:47;95503.94;;;21.23;62.98
30682;BME280;17439;48.092;11.842;2023-08-17T04:28:14;95506.69;;;21.23;63.24
30682;BME280;17439;48.092;11.842;2023-08-17T04:30:43;95506.69;;;21.23;62.90
30682;BME280;17439;48.092;11.842;2023-08-17T04:33:10;95507.88;;;21.22;63.20
30682;BME280;17439;48.092;11.842;2023-08-17T04:35:37;95510.63;;;21.22;63.36
30682;BME280;17439;48.092;11.842;2023-08-17T04:38:05;95519.69;;;21.23;63.49
30682;BME280;17439;48.092;11.842;2023-08-17T04:40:32;95509.03;;;21.21;63.38
30682;BME280;17439;48.092;11.842;2023-08-17T04:42:59;95514.56;;;21.21;63.49
30682;BME280;17439;48.092;11.842;2023-08-17T04:45:27;95503.53;;;21.21;63.37
30682;BME280;17439;48.092;11.842;2023-08-17T04:47:53;95506.69;;;21.23;63.39
30682;BME280;17439;48.092;11.842;2023-08-17T04:50:20;95516.56;;;21.24;63.64
30682;BME280;17439;48.092;11.842;2023-08-17T04:52:48;95515.38;;;21.25;63.30
30682;BME280;17439;48.092;11.842;2023-08-17T04:55:14;95513.81;;;21.28;63.44
30682;BME280;17439;48.092;11.842;2023-08-17T04:57:42;95526.44;;;21.29;63.38
30682;BME280;17439;48.092;11.842;2023-08-17T05:00:11;95530.00;;;21.33;63.64
30682;BME280;17439;48.092;11.842;2023-08-17T05:02:39;95530.06;;;21.36;63.43
30682;BME280;17439;48.092;11.842;2023-08-17T05:05:09;95535.22;;;21.38;63.47
30682;BME280;17439;48.092;11.842;2023-08-17T05:07:36;95530.88;;;21.41;63.56
30682;BME280;17439;48.092;11.842;2023-08-17T05:10:03;95535.66;;;21.44;63.53
30682;BME280;17439;48.092;11.842;2023-08-17T05:12:33;95531.34;;;21.46;63.35
30682;BME280;17439;48.092;11.842;2023-08-17T05:14:59;95525.44;;;21.48;63.32
30682;BME280;17439;48.092;11.842;2023-08-17T05:17:26;95530.25;;;21.51;63.60
30682;BME280;17439;48.092;11.842;2023-08-17T05:19:55;95533.41;;;21.53;63.90
30682;BME280;17439;48.092;11.842;2023-08-17T05:22:21;95532.66;;;21.56;64.30
30682;BME280;17439;48.092;11.842;2023-08-17T05:24:48;95534.66;;;21.59;64.24
30682;BME280;17439;48.092;11.842;2023-08-17T05:27:17;95532.69;;;21.63;64.59
30682;BME280;17439;48.092;11.842;2023-08-17T05:29:44;95535.91;;;21.69;64.61
30682;BME280;17439;48.092;11.842;2023-08-17T05:32:11;95540.28;;;21.73;65.00
30682;BME280;17439;48.092;11.842;2023-08-17T05:34:37;95544.28;;;21.80;64.79
30682;BME280;17439;48.092;11.842;2023-08-17T05:37:04;95547.09;;;21.87;64.94
30682;BME280;17439;48.092;11.842;2023-08-17T05:39:31;95543.59;;;21.93;64.49
30682;BME280;17439;48.092;11.842;2023-08-17T05:42:01;95547.63;;;22.03;64.44
30682;BME280;17439;48.092;11.842;2023-08-17T05:44:28;95537.78;;;22.09;64.40
30682;BME280;17439;48.092;11.842;2023-08-17T05:46:54;95541.78;;;22.16;64.62
30682;BME280;17439;48.092;11.842;2023-08-17T05:49:21;95546.19;;;22.24;64.65
30682;BME280;17439;48.092;11.842;2023-08-17T05:51:48;95550.19;;;22.30;64.84
30682;BME280;17439;48.092;11.842;2023-08-17T05:54:16;95541.19;;;22.37;64.59
30682;BME280;17439;48.092;11.842;2023-08-17T05:56:43;95547.50;;;22.44;65.05
30682;BME280;17439;48.092;11.842;2023-08-17T05:59:13;95546.41;;;22.53;65.09
30682;BME280;17439;48.092;11.842;2023-08-17T06:01:40;95538.91;;;22.60;64.89
30682;BME280;17439;48.092;11.842;2023-08-17T06:04:07;95552.41;;;22.69;64.84
30682;BME280;17439;48.092;11.842;2023-08-17T06:06:34;95554.00;;;22.77;64.81
30682;BME280;17439;48.092;11.842;2023-08-17T06:09:00;95547.75;;;22.88;64.66
30682;BME280;17439;48.092;11.842;2023-08-17T06:11:27;95551.31;;;22.95;64.31
30682;BME280;17439;48.092;11.842;2023-08-17T06:13:54;95555.72;;;23.04;64.41
30682;BME280;17439;48.092;11.842;2023-08-17T06:16:21;95547.06;;;23.12;64.39
30682;BME280;17439;48.092;11.842;2023-08-17T06:18:47;95550.25;;;23.22;64.21
30682;BME280;17439;48.092;11.842;2023-08-17T06:21:14;95550.28;;;23.29;64.15
30682;BME280;17439;48.092;11.842;2023-08-17T06:23:41;95549.53;;;23.35;63.83
30682;BME280;17439;48.092;11.842;2023-08-17T06:26:07;95555.06;;;23.43;63.73
30682;BME280;17439;48.092;11.842;2023-08-17T06:28:34;95545.56;;;23.47;63.85
30682;BME280;17439;48.092;11.842;2023-08-17T06:31:01;95551.91;;;23.51;64.18
30682;BME280;17439;48.092;11.842;2023-08-17T06:33:28;95550.34;;;23.58;64.18
30682;BME280;17439;48.092;11.842;2023-08-17T06:35:54;95551.13;;;23.65;63.97
30682;BME280;17439;48.092;11.842;2023-08-17T06:38:21;95557.47;;;23.73;64.16
30682;BME280;17439;48.092;11.842;2023-08-17T06:40:48;95550.34;;;23.79;63.80
30682;BME280;17439;48.092;11.842;2023-08-17T06:43:14;95555.53;;;23.88;63.68
30682;BME280;17439;48.092;11.842;2023-08-17T06:45:44;95557.53;;;23.95;63.80
30682;BME280;17439;48.092;11.842;2023-08-17T06:48:11;95560.28;;;24.02;63.73
30682;BME280;17439;48.092;11.842;2023-08-17T06:50:37;95551.97;;;24.09;63.50
30682;BME280;17439;48.092;11.842;2023-08-17T06:53:04;95558.31;;;24.17;63.19
30682;BME280;17439;48.092;11.842;2023-08-17T06:55:31;95552.75;;;24.24;63.39
30682;BME280;17439;48.092;11.842;2023-08-17T06:57:58;95559.06;;;24.32;63.07
30682;BME280;17439;48.092;11.842;2023-08-17T07:00:24;95552.72;;;24.38;63.18
30682;BME280;17439;48.092;11.842;2023-08-17T07:02:51;95556.69;;;24.44;63.39
30682;BME280;17439;48.092;11.842;2023-08-17T07:05:23;95543.19;;;24.54;63.21
30682;BME280;17439;48.092;11.842;2023-08-17T07:07:49;95547.94;;;24.64;62.67
30682;BME280;17439;48.092;11.842;2023-08-17T07:10:16;95553.09;;;24.73;62.50
30682;BME280;17439;48.092;11.842;2023-08-17T07:12:43;95556.22;;;24.82;62.60
30682;BME280;17439;48.092;11.842;2023-08-17T07:15:10;95553.41;;;24.89;61.94
30682;BME280;17439;48.092;11.842;2023-08-17T07:17:37;95552.63;;;24.96;61.77
30682;BME280;17439;48.092;11.842;2023-08-17T07:20:04;95544.63;;;25.05;61.64
30682;BME280;17439;48.092;11.842;2023-08-17T07:22:34;95551.75;;;25.13;61.54
30682;BME280;17439;48.092;11.842;2023-08-17T07:25:01;95548.53;;;25.22;61.07
30682;BME280;17439;48.092;11.842;2023-08-17T07:27:28;95553.28;;;25.29;60.14
30682;BME280;17439;48.092;11.842;2023-08-17T07:29:55;95558.78;;;25.36;59.61
30682;BME280;17439;48.092;11.842;2023-08-17T07:32:22;95560.72;;;25.43;59.24
30682;BME280;17439;48.092;11.842;2023-08-17T07:34:48;95557.91;;;25.50;58.61
30682;BME280;17439;48.092;11.842;2023-08-17T07:37:15;95554.69;;;25.59;58.23
30682;BME280;17439;48.092;11.842;2023-08-17T07:39:41;95554.22;;;25.67;58.07
30682;BME280;17439;48.092;11.842;2023-08-17T07:42:08;95547.03;;;25.74;57.65
30682;BME280;17439;48.092;11.842;2023-08-17T07:44:35;95560.09;;;25.80;57.25
30682;BME280;17439;48.092;11.842;2023-08-17T07:47:02;95564.00;;;25.86;56.91
30682;BME280;17439;48.092;11.842;2023-08-17T07:49:29;95556.03;;;25.92;57.13
30682;BME280;17439;48.092;11.842;2023-08-17T07:52:15;95561.19;;;25.97;57.29
30682;BME280;17439;48.092;11.842;2023-08-17T07:54:42;95559.13;;;26.05;57.05
30682;BME280;17439;48.092;11.842;2023-08-17T07:57:09;95559.88;;;26.13;56.62
30682;BME280;17439;48.092;11.842;2023-08-17T07:59:36;95558.59;;;26.21;56.53
30682;BME280;17439;48.092;11.842;2023-08-17T08:02:03;95560.13;;;26.29;56.22
30682;BME280;17439;48.092;11.842;2023-08-17T08:04:29;95554.91;;;26.35;55.66
30682;BME280;17439;48.092;11.842;2023-08-17T08:06:56;95549.69;;;26.40;55.52
30682;BME280;17439;48.092;11.842;2023-08-17T08:09:23;95548.03;;;26.47;55.06
30682;BME280;17439;48.092;11.842;2023-08-17T08:11:50;95550.34;;;26.55;54.11
30682;BME280;17439;48.092;11.842;2023-08-17T08:14:17;95543.56;;;26.60;53.21
30682;BME280;17439;48.092;11.842;2023-08-17T08:16:43;95550.69;;;26.65;53.44
30682;BME280;17439;48.092;11.842;2023-08-17T08:19:10;95550.66;;;26.68;53.84
30682;BME280;17439;48.092;11.842;2023-08-17T08:21:37;95533.13;;;26.71;53.68
30682;BME280;17439;48.092;11.842;2023-08-17T08:24:04;95547.34;;;26.77;53.67
30682;BME280;17439;48.092;11.842;2023-08-17T08:26:39;95545.34;;;26.81;53.93
30682;BME280;17439;48.092;11.842;2023-08-17T08:29:06;95547.66;;;26.86;53.89
30682;BME280;17439;48.092;11.842;2023-08-17T08:31:33;95541.22;;;26.93;53.88
30682;BME280;17439;48.092;11.842;2023-08-17T08:33:59;95539.91;;;27.01;52.54
30682;BME280;17439;48.092;11.842;2023-08-17T08:36:26;95537.88;;;27.05;52.53
30682;BME280;17439;48.092;11.842;2023-08-17T08:38:53;95542.97;;;27.10;52.75
30682;BME280;17439;48.092;11.842;2023-08-17T08:41:19;95534.97;;;27.16;52.86
30682;BME280;17439;48.092;11.842;2023-08-17T08:43:47;95543.22;;;27.23;51.82
30682;BME280;17439;48.092;11.842;2023-08-17T08:46:17;95541.97;;;27.28;51.39
30682;BME280;17439;48.092;11.842;2023-08-17T08:48:45;95544.69;;;27.35;52.32
30682;BME280;17439;48.092;11.842;2023-08-17T08:51:16;95534.63;;;27.45;50.15
30682;BME280;17439;48.092;11.842;2023-08-17T08:53:48;95536.91;;;27.50;49.78
30682;BME280;17439;48.092;11.842;2023-08-17T08:56:20;95536.88;;;27.54;50.74
30682;BME280;17439;48.092;11.842;2023-08-17T08:58:50;95540.41;;;27.58;50.89
30682;BME280;17439;48.092;11.842;2023-08-17T09:01:20;95537.94;;;27.63;51.29
30682;BME280;17439;48.092;11.842;2023-08-17T09:03:47;95534.09;;;27.54;49.73
30682;BME280;17439;48.092;11.842;2023-08-17T09:06:15;95545.41;;;27.70;51.57
30682;BME280;17439;48.092;11.842;2023-08-17T09:08:43;95536.13;;;27.77;50.92
30682;BME280;17439;48.092;11.842;2023-08-17T09:11:10;95539.25;;;27.82;51.26
30682;BME280;17439;48.092;11.842;2023-08-17T09:13:37;95530.75;;;27.90;51.50
30682;BME280;17439;48.092;11.842;2023-08-17T09:16:04;95526.31;;;27.96;51.89
30682;BME280;17439;48.092;11.842;2023-08-17T09:18:34;95533.06;;;27.98;50.94
30682;BME280;17439;48.092;11.842;2023-08-17T09:21:04;95528.13;;;28.06;51.20
30682;BME280;17439;48.092;11.842;2023-08-17T09:23:30;95531.16;;;28.15;50.73
30682;BME280;17439;48.092;11.842;2023-08-17T09:26:08;95522.31;;;28.20;49.51
30682;BME280;17439;48.092;11.842;2023-08-17T09:28:38;95517.47;;;28.25;50.64
30682;BME280;17439;48.092;11.842;2023-08-17T09:31:05;95522.19;;;28.28;51.00
30682;BME280;17439;48.092;11.842;2023-08-17T09:33:32;95515.78;;;28.31;51.04
30682;BME280;17439;48.092;11.842;2023-08-17T09:35:59;95517.63;;;28.37;51.36
30682;BME280;17439;48.092;11.842;2023-08-17T09:38:27;95525.06;;;28.44;51.30
30682;BME280;17439;48.092;11.842;2023-08-17T09:40:54;95521.31;;;28.54;50.75
30682;BME280;17439;48.092;11.842;2023-08-17T09:43:22;95513.81;;;28.51;50.09
30682;BME280;17439;48.092;11.842;2023-08-17T09:45:49;95523.88;;;28.69;51.16
30682;BME280;17439;48.092;11.842;2023-08-17T09:48:16;95523.66;;;28.80;51.48
30682;BME280;17439;48.092;11.842;2023-08-17T09:50:44;95516.28;;;28.89;51.26
30682;BME280;17439;48.092;11.842;2023-08-17T09:53:14;95518.72;;;28.87;51.41
30682;BME280;17439;48.092;11.842;2023-08-17T09:55:42;95516.34;;;29.06;50.71
30682;BME280;17439;48.092;11.842;2023-08-17T09:58:09;95512.91;;;29.18;50.50
30682;BME280;17439;48.092;11.842;2023-08-17T10:00:38;95513.19;;;29.24;50.20
30682;BME280;17439;48.092;11.842;2023-08-17T10:03:06;95513.06;;;29.31;50.16
30682;BME280;17439;48.092;11.842;2023-08-17T10:05:38;95510.56;;;29.37;49.52
30682;BME280;17439;48.092;11.842;2023-08-17T10:08:07;95517.53;;;29.45;49.75
30682;BME280;17439;48.092;11.842;2023-08-17T10:10:35;95499.06;;;29.51;49.08
30682;BME280;17439;48.092;11.842;2023-08-17T10:13:09;95503.78;;;29.54;48.39
30682;BME280;17439;48.092;11.842;2023-08-17T10:15:39;95503.69;;;29.58;49.18
30682;BME280;17439;48.092;11.842;2023-08-17T10:18:17;95503.41;;;29.52;47.66
30682;BME280;17439;48.092;11.842;2023-08-17T10:20:54;95496.53;;;29.57;48.40
30682;BME280;17439;48.092;11.842;2023-08-17T10:23:24;95499.59;;;29.62;48.92
30682;BME280;17439;48.092;11.842;2023-08-17T10:25:52;95497.56;;;29.63;48.99
30682;BME280;17439;48.092;11.842;2023-08-17T10:28:19;95502.28;;;29.49;47.15
30682;BME280;17439;48.092;11.842;2023-08-17T10:30:47;95493.47;;;29.67;48.78
30682;BME280;17439;48.092;11.842;2023-08-17T10:33:14;95491.75;;;29.74;48.50
30682;BME280;17439;48.092;11.842;2023-08-17T10:35:42;95486.44;;;29.79;48.48
30682;BME280;17439;48.092;11.842;2023-08-17T10:38:09;95494.31;;;29.84;48.84
30682;BME280;17439;48.092;11.842;2023-08-17T10:40:37;95494.75;;;29.83;49.34
30682;BME280;17439;48.092;11.842;2023-08-17T10:43:05;95493.88;;;30.02;47.35
30682;BME280;17439;48.092;11.842;2023-08-17T10:45:35;95498.38;;;30.13;46.36
30682;BME280;17439;48.092;11.842;2023-08-17T10:50:35;95496.47;;;30.26;46.35
30682;BME280;17439;48.092;11.842;2023-08-17T10:53:10;95495.59;;;30.29;45.77
30682;BME280;17439;48.092;11.842;2023-08-17T10:55:44;95481.94;;;30.31;46.18
30682;BME280;17439;48.092;11.842;2023-08-17T10:58:11;95484.94;;;30.41;45.35
30682;BME280;17439;48.092;11.842;2023-08-17T11:00:41;95488.75;;;30.47;45.20
30682;BME280;17439;48.092;11.842;2023-08-17T11:03:09;95483.75;;;30.54;44.32
30682;BME280;17439;48.092;11.842;2023-08-17T11:08:08;95486.34;;;30.62;43.77
30682;BME280;17439;48.092;11.842;2023-08-17T11:10:35;95483.44;;;30.65;44.71
30682;BME280;17439;48.092;11.842;2023-08-17T11:13:02;95480.56;;;30.69;44.59
30682;BME280;17439;48.092;11.842;2023-08-17T11:15:40;95477.84;;;30.65;42.66
30682;BME280;17439;48.092;11.842;2023-08-17T11:18:06;95477.63;;;30.60;44.25
30682;BME280;17439;48.092;11.842;2023-08-17T11:20:37;95475.97;;;30.75;44.52
30682;BME280;17439;48.092;11.842;2023-08-17T11:23:04;95469.41;;;30.82;44.64
30682;BME280;17439;48.092;11.842;2023-08-17T11:25:32;95473.91;;;30.92;43.69
30682;BME280;17439;48.092;11.842;2023-08-17T11:28:03;95476.97;;;30.98;43.95
30682;BME280;17439;48.092;11.842;2023-08-17T11:30:29;95470.81;;;31.03;43.92
30682;BME280;17439;48.092;11.842;2023-08-17T11:32:56;95471.72;;;31.13;43.75
30682;BME280;17439;48.092;11.842;2023-08-17T11:35:23;95464.34;;;31.19;43.99
30682;BME280;17439;48.092;11.842;2023-08-17T11:37:50;95472.53;;;31.26;44.09
30682;BME280;17439;48.092;11.842;2023-08-17T11:40:17;95461.56;;;31.32;44.20
30682;BME280;17439;48.092;11.842;2023-08-17T11:42:45;95469.19;;;31.44;42.88
30682;BME280;17439;48.092;11.842;2023-08-17T11:45:12;95457.56;;;31.58;41.66
30682;BME280;17439;48.092;11.842;2023-08-17T11:47:40;95462.47;;;31.54;42.64
30682;BME280;17439;48.092;11.842;2023-08-17T11:50:11;95453.53;;;31.72;41.31
30682;BME280;17439;48.092;11.842;2023-08-17T11:52:46;95453.72;;;31.78;40.41
30682;BME280;17439;48.092;11.842;2023-08-17T11:55:16;95455.75;;;31.77;40.94
30682;BME280;17439;48.092;11.842;2023-08-17T11:57:43;95453.72;;;31.78;40.87
30682;BME280;17439;48.092;11.842;2023-08-17T12:00:17;95447.34;;;31.77;39.68
30682;BME280;17439;48.092;11.842;2023-08-17T12:02:46;95446.78;;;31.82;41.34
30682;BME280;17439;48.092;11.842;2023-08-17T12:05:13;95442.16;;;31.89;40.15
30682;BME280;17439;48.092;11.842;2023-08-17T12:07:40;95433.84;;;31.98;38.62
30682;BME280;17439;48.092;11.842;2023-08-17T12:10:07;95432.94;;;32.01;39.73
30682;BME280;17439;48.092;11.842;2023-08-17T12:12:37;95439.56;;;32.07;37.96
30682;BME280;17439;48.092;11.842;2023-08-17T12:15:04;95436.53;;;32.14;37.34
30682;BME280;17439;48.092;11.842;2023-08-17T12:17:31;95430.91;;;32.14;38.29
30682;BME280;17439;48.092;11.842;2023-08-17T12:19:58;95431.59;;;32.18;38.35
30682;BME280;17439;48.092;11.842;2023-08-17T12:22:25;95436.16;;;32.25;37.91
30682;BME280;17439;48.092;11.842;2023-08-17T12:24:53;95422.44;;;32.27;38.49
30682;BME280;17439;48.092;11.842;2023-08-17T12:27:21;95423.91;;;32.32;38.26
30682;BME280;17439;48.092;11.842;2023-08-17T12:29:49;95425.66;;;32.39;38.04
30682;BME280;17439;48.092;11.842;2023-08-17T12:32:19;95428.09;;;32.49;37.71
30682;BME280;17439;48.092;11.842;2023-08-17T12:34:46;95412.22;;;32.55;36.74
30682;BME280;17439;48.092;11.842;2023-08-17T12:37:18;95414.91;;;32.59;36.92
30682;BME280;17439;48.092;11.842;2023-08-17T12:39:45;95401.22;;;32.61;37.32
30682;BME280;17439;48.092;11.842;2023-08-17T12:42:12;95402.84;;;32.71;35.78
30682;BME280;17439;48.092;11.842;2023-08-17T12:44:38;95403.19;;;32.73;35.89
30682;BME280;17439;48.092;11.842;2023-08-17T12:47:05;95393.66;;;32.71;36.38
30682;BME280;17439;48.092;11.842;2023-08-17T12:49:32;95393.00;;;32.67;36.76
30682;BME280;17439;48.092;11.842;2023-08-17T12:52:04;95391.94;;;32.73;35.12
30682;BME280;17439;48.092;11.842;2023-08-17T12:54:31;95383.41;;;32.77;35.00
30682;BME280;17439;48.092;11.842;2023-08-17T12:56:58;95393.06;;;32.76;35.65
30682;BME280;17439;48.092;11.842;2023-08-17T12:59:27;95392.75;;;32.74;35.94
30682;BME280;17439;48.092;11.842;2023-08-17T13:01:53;95390.41;;;32.72;36.42